Latest Weather Observations for Omeo

IDV60801

Issued at 7:35 pm EST Thursday 21 August 2014 (issued every 30 minutes, with the page automatically refreshed every 10 minutes)

About weather observations | Map of weather stations | Latest weather observations for VIC | Other Formats
Station Details ID: 083090 Name: OMEO Lat: -37.10 Lon: 147.60 Height: 689.8 m
Data from the previous 72 hours. | See also: Recent months at Omeo
Date/Time
EST
Temp
°C
App
Temp
°C
Dew
Point
Rel
Hum
%
Delta-T
°C
Wind Press
QNH
hPa
Press
MSL
hPa
Rain
since 9 am
mm
Dir
 
Spd
km/h
Gust
km/h
Spd
kts
Gust
kts
21/07:30pm 7.1 4.2 4.9 86 1.0 S 9 13 5 7 1029.6 1030.6 0.0
21/07:00pm 7.6 5.4 5.1 84 1.1 SSW 6 11 3 6 1029.3 1030.2 0.0
21/06:30pm 7.4 5.4 4.4 81 1.4 S 4 7 2 4 1029.0 1029.9 0.0
21/06:00pm 8.2 6.5 4.0 75 1.9 SSW 2 7 1 4 1028.7 1029.7 0.0
21/05:30pm 9.2 6.2 4.0 70 2.4 SE 9 17 5 9 1028.3 1029.3 0.0
21/05:00pm 11.0 6.9 4.5 64 3.0 SSE 15 24 8 13 1028.0 1028.9 0.0
21/04:30pm 12.1 8.1 5.0 62 3.4 SSE 15 24 8 13 1027.7 1028.6 0.0
21/04:00pm 12.9 8.9 4.8 58 3.9 SE 15 24 8 13 1027.6 1028.5 0.0
21/03:30pm 13.4 9.9 5.3 58 3.9 SE 13 20 7 11 1027.5 1028.4 0.0
21/03:00pm 13.9 10.9 5.8 58 4.0 ESE 11 20 6 11 1027.5 1028.4 0.0
21/02:30pm 13.7 10.5 2.9 48 5.0 NNW 9 13 5 7 1027.5 1028.4 0.0
21/02:00pm 13.4 10.3 3.8 52 4.5 N 9 17 5 9 1027.8 1028.7 0.0
21/01:30pm 12.9 9.6 4.8 58 3.9 NNW 11 15 6 8 1028.0 1028.9 0.0
21/01:00pm 11.8 9.0 5.0 63 3.2 N 9 15 5 8 1028.4 1029.4 0.0
21/12:30pm 10.8 7.6 4.9 67 2.8 NNW 11 17 6 9 1028.8 1029.8 0.0
21/12:00pm 9.5 5.8 4.3 70 2.4 N 13 19 7 10 1029.3 1030.2 0.0
21/11:30am 7.8 4.1 4.2 78 1.6 N 13 17 7 9 1029.8 1030.8 0.0
21/11:00am 6.3 2.8 5.3 93 0.5 N 13 19 7 10 1030.1 1031.1 0.0
21/10:30am 5.1 1.5 4.8 98 0.1 N 13 19 7 10 1030.3 1031.3 0.0
21/10:00am 3.9 0.1 3.8 99 0.0 N 13 19 7 10 1030.5 1031.4 0.0
21/09:30am 3.2 -0.8 3.1 99 0.0 N 13 17 7 9 1030.3 1031.3 0.0
21/09:00am 2.5 -2.0 2.4 99 0.0 N 15 19 8 10 1030.3 1031.3 0.2
21/08:30am 2.1 -1.3 2.0 99 0.0 N 9 13 5 7 1030.2 1031.2 0.2
21/08:00am 1.2 -2.4 0.9 98 0.1 N 9 15 5 8 1030.1 1031.1 0.2
21/07:30am 0.8 -3.6 0.5 98 0.1 N 13 19 7 10 1029.8 1030.8 0.2
21/07:00am 0.1 -4.0 -0.2 98 0.1 N 11 15 6 8 1029.5 1030.5 0.2
21/06:30am -0.2 -4.0 -0.6 97 0.1 N 9 15 5 8 1029.2 1030.1 0.2
21/06:00am 0.1 -3.7 -0.5 96 0.2 N 9 13 5 7 1028.5 1029.5 0.2
21/05:30am 0.9 -2.8 0.2 95 0.3 N 9 13 5 7 1028.5 1029.5 0.2
21/05:00am 1.7 -0.2 0.7 93 0.4 CALM 0 2 0 1 1028.3 1029.3 0.2
21/04:30am 2.2 0.0 0.9 91 0.5 E 2 6 1 3 1028.2 1029.2 0.2
21/04:00am 3.3 0.8 1.7 89 0.6 ESE 4 7 2 4 1028.1 1029.0 0.2
21/03:30am 4.7 3.2 2.9 88 0.8 CALM 0 0 0 0 1027.9 1028.8 0.2
21/03:00am 4.8 2.9 3.0 88 0.8 S 2 7 1 4 1027.9 1028.8 0.2
21/02:30am 4.8 2.2 3.0 88 0.8 SSE 6 9 3 5 1027.8 1028.7 0.2
21/02:00am 4.9 1.7 3.1 88 0.8 SE 9 13 5 7 1027.8 1028.7 0.2
21/01:30am 4.9 1.7 3.1 88 0.8 SE 9 13 5 7 1027.9 1028.8 0.2
21/01:00am 5.0 1.8 3.2 88 0.8 SE 9 15 5 8 1027.8 1028.7 0.2
21/12:30am 5.1 2.3 3.4 89 0.7 SE 7 9 4 5 1027.8 1028.7 0.2
21/12:00am 5.1 2.3 3.3 88 0.8 SE 7 9 4 5 1027.8 1028.7 0.2
 
Date/Time
EST
Temp
°C
App
Temp
°C
Dew
Point
Rel
Hum
%
Delta-T
°C
Wind Press
QNH
hPa
Press
MSL
hPa
Rain
since 9 am
mm
Dir
 
Spd
km/h
Gust
km/h
Spd
kts
Gust
kts
20/11:30pm 4.9 2.1 3.1 88 0.8 SE 7 11 4 6 1027.8 1028.7 0.2
20/11:00pm 5.3 2.7 3.2 86 0.9 SSE 6 9 3 5 1027.7 1028.6 0.2
20/10:30pm 5.5 2.3 3.3 86 1.0 SE 9 11 5 6 1027.8 1028.7 0.2
20/10:00pm 5.6 2.5 3.4 86 1.0 SSE 9 13 5 7 1027.9 1028.8 0.2
20/09:30pm 5.6 2.5 3.4 86 1.0 SSE 9 17 5 9 1027.9 1028.8 0.2
20/09:00pm 5.6 3.0 3.4 86 1.0 S 6 11 3 6 1027.8 1028.7 0.2
20/08:30pm 5.7 2.6 3.7 87 0.9 SSW 9 13 5 7 1027.7 1028.6 0.2
20/08:00pm 5.5 2.4 3.7 88 0.8 SSW 9 15 5 8 1027.6 1028.5 0.2
20/07:30pm 5.4 2.3 3.6 88 0.8 S 9 17 5 9 1027.2 1028.2 0.2
20/07:00pm 5.5 2.4 3.7 88 0.8 S 9 19 5 10 1027.0 1028.0 0.2
20/06:30pm 5.4 1.9 3.4 87 0.9 S 11 20 6 11 1026.5 1027.4 0.2
20/06:00pm 5.8 1.5 3.3 84 1.1 SSE 15 22 8 12 1026.1 1027.0 0.2
20/05:30pm 6.5 1.8 3.3 80 1.4 SE 17 24 9 13 1025.6 1026.5 0.2
20/05:00pm 8.0 3.7 3.3 72 2.1 SSE 15 22 8 12 1025.1 1026.0 0.2
20/04:30pm 9.3 5.0 3.5 67 2.6 SE 15 24 8 13 1024.8 1025.7 0.2
20/04:00pm 9.8 5.2 3.5 65 2.8 SSE 17 24 9 13 1024.6 1025.5 0.2
20/03:30pm 10.1 5.5 3.6 64 3.0 SSE 17 24 9 13 1024.4 1025.2 0.2
20/03:00pm 10.6 6.0 3.9 63 3.1 SE 17 24 9 13 1024.3 1025.1 0.2
20/02:30pm 11.4 7.8 5.1 65 3.0 SE 13 20 7 11 1024.1 1025.0 0.2
20/02:00pm 11.6 8.2 4.1 60 3.5 SE 11 17 6 9 1024.1 1025.0 0.2
20/01:30pm 10.4 7.5 2.7 59 3.4 SE 7 13 4 7 1024.3 1025.1 0.2
20/01:00pm 9.9 7.3 3.2 63 3.0 NE 6 9 3 5 1024.5 1025.4 0.2
20/12:30pm 9.2 6.4 1.9 60 3.2 ESE 6 9 3 5 1024.9 1025.8 0.2
20/12:00pm 7.7 4.5 0.9 62 2.8 SW 7 11 4 6 1025.3 1026.2 0.2
20/11:30am 8.0 5.6 2.0 66 2.6 ENE 4 7 2 4 1025.7 1026.7 0.2
20/11:00am 6.6 3.5 0.3 64 2.6 ESE 6 11 3 6 1026.0 1026.9 0.0
20/10:30am 6.7 3.6 1.4 69 2.2 ESE 7 9 4 5 1026.1 1027.0 0.0
20/10:00am 5.7 2.6 1.4 74 1.8 S 7 11 4 6 1026.1 1027.0 0.0
20/09:30am 4.0 0.7 0.2 76 1.5 W 7 15 4 8 1026.1 1027.0 0.0
20/09:00am 3.6 0.4 -0.2 76 1.5 ENE 6 7 3 4 1026.0 1026.9 0.4
20/08:30am 3.5 0.5 0.6 81 1.2 SSW 6 9 3 5 1026.0 1026.9 0.4
20/08:00am 2.7 -1.1 -0.4 80 1.2 SSW 9 13 5 7 1025.7 1026.7 0.4
20/07:30am 3.2 0.4 -0.1 79 1.3 WNW 4 9 2 5 1025.4 1026.3 0.4
20/07:00am 3.0 0.6 -0.3 79 1.3 S 2 9 1 5 1025.2 1026.1 0.4
20/06:30am 3.1 0.7 0.0 80 1.2 SW 2 6 1 3 1025.1 1026.0 0.4
20/06:00am 3.3 0.0 0.0 79 1.3 SW 7 13 4 7 1024.9 1025.8 0.4
20/05:30am 3.5 0.4 0.4 80 1.2 SW 6 7 3 4 1024.7 1025.6 0.4
20/05:00am 3.6 0.6 0.5 80 1.2 S 6 7 3 4 1024.6 1025.5 0.4
20/04:30am 3.8 0.8 0.5 79 1.3 SSE 6 9 3 5 1024.5 1025.4 0.4
20/04:00am 3.9 1.2 0.4 78 1.4 S 4 9 2 5 1024.4 1025.2 0.4
20/03:30am 4.2 1.0 0.7 78 1.4 S 7 9 4 5 1024.1 1025.0 0.4
20/03:00am 4.4 1.8 0.9 78 1.4 SE 4 9 2 5 1024.0 1024.9 0.4
20/02:30am 4.4 2.2 1.3 80 1.3 SE 2 9 1 5 1024.0 1024.9 0.4
20/02:00am 4.6 1.7 1.6 81 1.2 SSE 6 7 3 4 1024.3 1025.1 0.4
20/01:30am 4.9 2.8 1.9 81 1.3 S 2 6 1 3 1024.3 1025.1 0.4
20/01:00am 5.0 2.1 2.4 83 1.1 ESE 7 11 4 6 1024.3 1025.1 0.4
20/12:30am 5.2 3.7 3.1 86 0.9 CALM 0 0 0 0 1024.4 1025.2 0.4
20/12:00am 5.4 3.3 3.7 89 0.7 S 4 6 2 3 1024.4 1025.2 0.4
 
Date/Time
EST
Temp
°C
App
Temp
°C
Dew
Point
Rel
Hum
%
Delta-T
°C
Wind Press
QNH
hPa
Press
MSL
hPa
Rain
since 9 am
mm
Dir
 
Spd
km/h
Gust
km/h
Spd
kts
Gust
kts
19/11:30pm 5.4 2.9 3.7 89 0.7 SSE 6 9 3 5 1024.4 1025.2 0.4
19/11:00pm 5.3 2.8 3.8 90 0.7 SSE 6 9 3 5 1024.4 1025.2 0.4
19/10:30pm 5.5 3.5 4.3 92 0.5 SSE 4 7 2 4 1024.3 1025.1 0.4
19/10:00pm 5.5 2.9 4.3 92 0.5 SE 7 11 4 6 1024.1 1025.0 0.4
19/09:30pm 5.6 3.2 4.4 92 0.5 SSE 6 9 3 5 1024.1 1025.0 0.4
19/09:00pm 5.5 2.9 4.3 92 0.5 ESE 7 11 4 6 1024.1 1025.0 0.4
19/08:30pm 5.8 3.5 4.6 92 0.5 SE 6 11 3 6 1024.0 1024.9 0.4
19/08:00pm 5.9 3.4 4.7 92 0.5 SSE 7 13 4 7 1023.9 1024.8 0.4
19/07:30pm 6.0 2.8 5.0 93 0.5 ESE 11 17 6 9 1023.8 1024.7 0.4
19/07:00pm 6.1 3.3 5.1 93 0.5 SE 9 17 5 9 1023.6 1024.5 0.4
19/06:30pm 6.2 2.6 5.2 93 0.5 ESE 13 17 7 9 1023.2 1024.0 0.4
19/06:00pm 6.3 2.4 5.3 93 0.5 ESE 15 22 8 12 1022.8 1023.6 0.4
19/05:30pm 6.6 2.7 5.4 92 0.6 ESE 15 22 8 12 1022.5 1023.4 0.4
19/05:00pm 7.2 3.0 5.7 90 0.7 SE 17 26 9 14 1022.2 1023.1 0.4
19/04:30pm 7.6 3.5 6.1 90 0.7 ESE 17 24 9 13 1022.1 1023.0 0.4
19/04:00pm 7.9 3.8 6.2 89 0.8 SE 17 22 9 12 1021.9 1022.7 0.4
19/03:30pm 8.5 4.5 6.5 87 1.0 SE 17 26 9 14 1021.9 1022.7 0.4
19/03:00pm 8.9 4.9 6.7 86 1.1 ESE 17 26 9 14 1021.7 1022.5 0.4
19/02:30pm 9.3 5.4 7.1 86 1.1 SE 17 24 9 13 1021.6 1022.4 0.4
19/02:00pm 9.2 5.2 6.6 84 1.3 SE 17 28 9 15 1021.4 1022.2 0.4
19/01:30pm 8.9 5.0 6.9 87 1.0 SE 17 24 9 13 1021.5 1022.3 0.4
19/01:00pm 9.0 5.8 7.0 87 1.0 SE 13 22 7 12 1021.7 1022.5 0.4
19/12:30pm 9.9 6.5 7.7 86 1.1 SE 15 24 8 13 1021.9 1022.7 0.4
19/12:00pm 9.1 5.6 7.1 87 1.0 SE 15 26 8 14 1022.1 1023.0 0.4
19/11:30am 10.3 6.1 7.4 82 1.4 SE 19 28 10 15 1022.2 1023.1 0.4
19/11:00am 10.5 6.8 7.9 84 1.3 SSE 17 28 9 15 1022.3 1023.2 0.4
19/10:30am 9.7 6.0 7.8 88 0.9 SSE 17 26 9 14 1022.2 1023.1 0.4
19/10:00am 8.7 5.3 7.8 94 0.4 S 15 22 8 12 1022.2 1023.1 0.4
19/09:30am 8.3 4.9 7.5 95 0.4 SSE 15 24 8 13 1022.0 1022.9 0.4
19/09:00am 7.9 5.1 7.1 95 0.4 S 11 20 6 11 1022.0 1022.9 22.6
19/08:30am 7.8 5.4 7.2 96 0.3 S 9 15 5 8 1021.8 1022.6 22.4
19/08:00am 7.5 4.7 6.9 96 0.3 S 11 17 6 9 1021.5 1022.3 22.2
19/07:30am 7.1 3.8 6.5 96 0.3 SSW 13 19 7 10 1021.0 1021.9 22.2
19/07:00am 7.0 4.5 6.4 96 0.3 S 9 15 5 8 1020.6 1021.4 21.8
19/06:30am 6.8 4.2 6.2 96 0.3 SSW 9 17 5 9 1020.4 1021.2 21.8
19/06:00am 7.0 4.5 6.4 96 0.3 SSW 9 13 5 7 1020.2 1021.0 21.8
19/05:30am 7.1 4.2 6.5 96 0.3 SSW 11 15 6 8 1020.0 1020.8 21.8
19/05:00am 7.1 4.2 6.5 96 0.3 SSW 11 17 6 9 1019.8 1020.6 21.8
19/04:30am 7.2 5.1 6.6 96 0.3 S 7 13 4 7 1019.7 1020.5 21.8
19/04:00am 7.0 4.1 6.4 96 0.3 SSW 11 15 6 8 1019.7 1020.5 21.8
19/03:30am 6.9 3.6 6.3 96 0.3 SSW 13 19 7 10 1019.5 1020.4 21.8
19/03:00am 6.8 3.9 6.4 97 0.2 SSW 11 17 6 9 1019.5 1020.4 21.8
19/02:30am 6.7 4.7 6.1 96 0.3 SW 6 9 3 5 1019.7 1020.5 21.8
19/02:00am 6.8 4.6 6.2 96 0.3 S 7 9 4 5 1019.9 1020.7 21.6
19/01:30am 6.9 4.3 6.3 96 0.3 SSE 9 15 5 8 1020.0 1020.8 21.4
19/01:00am 6.9 4.0 6.3 96 0.3 SSE 11 20 6 11 1019.8 1020.6 21.4
19/12:30am 6.7 4.7 6.1 96 0.3 S 6 11 3 6 1019.8 1020.6 21.0
19/12:00am 6.7 3.7 6.0 95 0.3 SSW 11 17 6 9 1019.7 1020.5 20.8
 
Date/Time
EST
Temp
°C
App
Temp
°C
Dew
Point
Rel
Hum
%
Delta-T
°C
Wind Press
QNH
hPa
Press
MSL
hPa
Rain
since 9 am
mm
Dir
 
Spd
km/h
Gust
km/h
Spd
kts
Gust
kts
18/11:30pm 6.6 3.5 5.7 94 0.4 S 11 22 6 12 1019.8 1020.6 20.6
18/11:00pm 6.9 3.9 6.0 94 0.4 S 11 19 6 10 1019.7 1020.5 20.2
18/10:30pm 6.7 3.7 5.8 94 0.4 S 11 15 6 8 1019.7 1020.5 20.2
18/10:00pm 7.1 3.8 6.2 94 0.4 S 13 22 7 12 1019.7 1020.5 20.0
18/09:30pm 7.2 3.5 6.5 95 0.3 SSE 15 24 8 13 1019.4 1020.2 20.0
18/09:00pm 7.6 3.3 6.9 95 0.3 SSE 19 37 10 20 1019.0 1019.8 19.8
18/08:30pm 7.4 3.4 6.8 96 0.3 SE 17 26 9 14 1019.0 1019.8 19.8
18/08:00pm 7.8 4.7 7.2 96 0.3 SSE 13 20 7 11 1018.7 1019.5 19.2

Other Formats:

Comma delimited format used in spreadsheet applications
http://www.bom.gov.au/fwo/IDV60801/IDV60801.94908.axf

JavaScript Object Notation format (JSON) in row-major order
http://www.bom.gov.au/fwo/IDV60801/IDV60801.94908.json